sensor_id;sensor_type;location;lat;lon;timestamp;temperature;humidity
3758;DHT22;1894;51.038;13.692;2022-08-25T00:00:04;18.50;99.90
3758;DHT22;1894;51.038;13.692;2022-08-25T00:02:31;18.50;99.90
3758;DHT22;1894;51.038;13.692;2022-08-25T00:04:59;18.50;99.90
3758;DHT22;1894;51.038;13.692;2022-08-25T00:07:28;18.50;99.90
3758;DHT22;1894;51.038;13.692;2022-08-25T00:09:55;18.50;99.90
3758;DHT22;1894;51.038;13.692;2022-08-25T00:12:22;18.50;99.90
3758;DHT22;1894;51.038;13.692;2022-08-25T00:14:49;18.50;99.90
3758;DHT22;1894;51.038;13.692;2022-08-25T00:17:16;18.50;99.90
3758;DHT22;1894;51.038;13.692;2022-08-25T00:19:43;18.60;99.90
3758;DHT22;1894;51.038;13.692;2022-08-25T00:22:10;18.50;99.90
3758;DHT22;1894;51.038;13.692;2022-08-25T00:24:37;18.40;99.90
3758;DHT22;1894;51.038;13.692;2022-08-25T00:27:05;18.40;99.90
3758;DHT22;1894;51.038;13.692;2022-08-25T00:29:34;18.40;99.90
3758;DHT22;1894;51.038;13.692;2022-08-25T00:32:04;18.40;99.90
3758;DHT22;1894;51.038;13.692;2022-08-25T00:34:34;18.40;99.90
3758;DHT22;1894;51.038;13.692;2022-08-25T00:37:04;18.50;99.90
3758;DHT22;1894;51.038;13.692;2022-08-25T00:39:33;18.40;99.90
3758;DHT22;1894;51.038;13.692;2022-08-25T00:42:01;18.40;99.90
3758;DHT22;1894;51.038;13.692;2022-08-25T00:44:30;18.30;99.90
3758;DHT22;1894;51.038;13.692;2022-08-25T00:47:01;18.30;99.90
3758;DHT22;1894;51.038;13.692;2022-08-25T00:49:33;18.20;99.90
3758;DHT22;1894;51.038;13.692;2022-08-25T00:52:08;18.20;99.90
3758;DHT22;1894;51.038;13.692;2022-08-25T00:54:58;18.20;99.90
3758;DHT22;1894;51.038;13.692;2022-08-25T00:57:42;18.20;99.90
3758;DHT22;1894;51.038;13.692;2022-08-25T01:00:18;18.20;99.90
3758;DHT22;1894;51.038;13.692;2022-08-25T01:02:46;18.20;99.90
3758;DHT22;1894;51.038;13.692;2022-08-25T01:05:13;18.10;99.90
3758;DHT22;1894;51.038;13.692;2022-08-25T01:07:42;18.20;99.90
3758;DHT22;1894;51.038;13.692;2022-08-25T01:10:11;18.10;99.90
3758;DHT22;1894;51.038;13.692;2022-08-25T01:12:40;18.10;99.90
3758;DHT22;1894;51.038;13.692;2022-08-25T01:15:10;18.10;99.90
3758;DHT22;1894;51.038;13.692;2022-08-25T01:20:14;18.00;99.90
3758;DHT22;1894;51.038;13.692;2022-08-25T01:22:41;18.00;99.90
3758;DHT22;1894;51.038;13.692;2022-08-25T01:25:34;18.00;99.90
3758;DHT22;1894;51.038;13.692;2022-08-25T01:28:04;18.10;99.90
3758;DHT22;1894;51.038;13.692;2022-08-25T01:30:32;18.10;99.90
3758;DHT22;1894;51.038;13.692;2022-08-25T01:33:08;18.00;99.90
3758;DHT22;1894;51.038;13.692;2022-08-25T01:35:35;18.00;99.90
3758;DHT22;1894;51.038;13.692;2022-08-25T01:38:05;18.00;99.90
3758;DHT22;1894;51.038;13.692;2022-08-25T01:40:34;17.90;99.90
3758;DHT22;1894;51.038;13.692;2022-08-25T01:43:06;17.90;99.90
3758;DHT22;1894;51.038;13.692;2022-08-25T01:45:34;17.90;99.90
3758;DHT22;1894;51.038;13.692;2022-08-25T01:48:01;17.90;99.90
3758;DHT22;1894;51.038;13.692;2022-08-25T01:50:29;18.00;99.90
3758;DHT22;1894;51.038;13.692;2022-08-25T01:53:07;18.00;99.90
3758;DHT22;1894;51.038;13.692;2022-08-25T01:55:36;18.00;99.90
3758;DHT22;1894;51.038;13.692;2022-08-25T01:58:22;18.00;99.90
3758;DHT22;1894;51.038;13.692;2022-08-25T02:00:50;18.00;99.90
3758;DHT22;1894;51.038;13.692;2022-08-25T02:03:20;17.90;99.90
3758;DHT22;1894;51.038;13.692;2022-08-25T02:05:47;18.00;99.90
3758;DHT22;1894;51.038;13.692;2022-08-25T02:08:15;17.90;99.90
3758;DHT22;1894;51.038;13.692;2022-08-25T02:10:42;17.90;99.90
3758;DHT22;1894;51.038;13.692;2022-08-25T02:13:09;18.00;99.90
3758;DHT22;1894;51.038;13.692;2022-08-25T02:15:43;18.00;99.90
3758;DHT22;1894;51.038;13.692;2022-08-25T02:18:12;18.10;99.90
3758;DHT22;1894;51.038;13.692;2022-08-25T02:20:39;18.10;99.90
3758;DHT22;1894;51.038;13.692;2022-08-25T02:23:07;18.10;99.90
3758;DHT22;1894;51.038;13.692;2022-08-25T02:25:37;18.10;99.90
3758;DHT22;1894;51.038;13.692;2022-08-25T02:28:06;18.10;99.90
3758;DHT22;1894;51.038;13.692;2022-08-25T02:30:39;18.20;99.90
3758;DHT22;1894;51.038;13.692;2022-08-25T02:33:07;18.30;99.90
3758;DHT22;1894;51.038;13.692;2022-08-25T02:35:35;18.30;99.90
3758;DHT22;1894;51.038;13.692;2022-08-25T02:38:03;18.40;99.90
3758;DHT22;1894;51.038;13.692;2022-08-25T02:40:30;18.40;99.90
3758;DHT22;1894;51.038;13.692;2022-08-25T02:42:58;18.50;99.90
3758;DHT22;1894;51.038;13.692;2022-08-25T02:45:25;18.50;99.90
3758;DHT22;1894;51.038;13.692;2022-08-25T02:47:52;18.40;99.90
3758;DHT22;1894;51.038;13.692;2022-08-25T02:50:20;18.50;99.90
3758;DHT22;1894;51.038;13.692;2022-08-25T02:52:47;18.50;99.90
3758;DHT22;1894;51.038;13.692;2022-08-25T02:55:17;18.50;99.90
3758;DHT22;1894;51.038;13.692;2022-08-25T02:57:44;18.60;99.90
3758;DHT22;1894;51.038;13.692;2022-08-25T03:00:13;18.60;99.90
3758;DHT22;1894;51.038;13.692;2022-08-25T03:02:41;18.60;99.90
3758;DHT22;1894;51.038;13.692;2022-08-25T03:05:10;18.50;99.90
3758;DHT22;1894;51.038;13.692;2022-08-25T03:07:38;18.40;99.90
3758;DHT22;1894;51.038;13.692;2022-08-25T03:10:08;18.40;99.90
3758;DHT22;1894;51.038;13.692;2022-08-25T03:12:36;18.30;99.90
3758;DHT22;1894;51.038;13.692;2022-08-25T03:15:03;18.20;99.90
3758;DHT22;1894;51.038;13.692;2022-08-25T03:17:38;18.10;99.90
3758;DHT22;1894;51.038;13.692;2022-08-25T03:20:06;18.00;99.90
3758;DHT22;1894;51.038;13.692;2022-08-25T03:22:34;18.10;99.90
3758;DHT22;1894;51.038;13.692;2022-08-25T03:25:03;18.00;99.90
3758;DHT22;1894;51.038;13.692;2022-08-25T03:27:50;18.00;99.90
3758;DHT22;1894;51.038;13.692;2022-08-25T03:30:18;17.90;99.90
3758;DHT22;1894;51.038;13.692;2022-08-25T03:32:45;17.90;99.90
3758;DHT22;1894;51.038;13.692;2022-08-25T03:35:13;17.80;99.90
3758;DHT22;1894;51.038;13.692;2022-08-25T03:37:40;17.80;99.90
3758;DHT22;1894;51.038;13.692;2022-08-25T03:40:10;17.80;99.90
3758;DHT22;1894;51.038;13.692;2022-08-25T03:42:45;17.90;99.90
3758;DHT22;1894;51.038;13.692;2022-08-25T03:45:14;17.90;99.90
3758;DHT22;1894;51.038;13.692;2022-08-25T03:47:45;17.90;99.90
3758;DHT22;1894;51.038;13.692;2022-08-25T03:50:13;17.90;99.90
3758;DHT22;1894;51.038;13.692;2022-08-25T03:52:41;17.80;99.90
3758;DHT22;1894;51.038;13.692;2022-08-25T03:55:11;17.90;99.90
3758;DHT22;1894;51.038;13.692;2022-08-25T03:57:39;17.90;99.90
3758;DHT22;1894;51.038;13.692;2022-08-25T04:00:08;17.90;99.90
3758;DHT22;1894;51.038;13.692;2022-08-25T04:02:39;18.00;99.90
3758;DHT22;1894;51.038;13.692;2022-08-25T04:05:07;18.10;99.90
3758;DHT22;1894;51.038;13.692;2022-08-25T04:07:34;18.00;99.90
3758;DHT22;1894;51.038;13.692;2022-08-25T04:10:02;18.00;99.90
3758;DHT22;1894;51.038;13.692;2022-08-25T04:12:30;17.90;99.90
3758;DHT22;1894;51.038;13.692;2022-08-25T04:14:57;17.90;99.90
3758;DHT22;1894;51.038;13.692;2022-08-25T04:17:24;17.80;99.90
3758;DHT22;1894;51.038;13.692;2022-08-25T04:19:51;17.80;99.90
3758;DHT22;1894;51.038;13.692;2022-08-25T04:22:18;17.80;99.90
3758;DHT22;1894;51.038;13.692;2022-08-25T04:24:45;17.80;99.90
3758;DHT22;1894;51.038;13.692;2022-08-25T04:27:12;17.80;99.90
3758;DHT22;1894;51.038;13.692;2022-08-25T04:29:40;17.70;99.90
3758;DHT22;1894;51.038;13.692;2022-08-25T04:32:07;17.80;99.90
3758;DHT22;1894;51.038;13.692;2022-08-25T04:34:34;17.70;99.90
3758;DHT22;1894;51.038;13.692;2022-08-25T04:37:03;17.80;99.90
3758;DHT22;1894;51.038;13.692;2022-08-25T04:39:32;17.90;99.90
3758;DHT22;1894;51.038;13.692;2022-08-25T04:41:59;17.90;99.90
3758;DHT22;1894;51.038;13.692;2022-08-25T04:44:28;18.00;99.90
3758;DHT22;1894;51.038;13.692;2022-08-25T04:46:55;18.10;99.90
3758;DHT22;1894;51.038;13.692;2022-08-25T04:49:22;18.10;99.90
3758;DHT22;1894;51.038;13.692;2022-08-25T04:51:49;18.20;99.90
3758;DHT22;1894;51.038;13.692;2022-08-25T04:54:17;18.20;99.90
3758;DHT22;1894;51.038;13.692;2022-08-25T04:56:49;18.30;99.90
3758;DHT22;1894;51.038;13.692;2022-08-25T04:59:20;18.30;99.90
3758;DHT22;1894;51.038;13.692;2022-08-25T05:01:47;18.20;99.90
3758;DHT22;1894;51.038;13.692;2022-08-25T05:04:21;18.30;99.90
3758;DHT22;1894;51.038;13.692;2022-08-25T05:06:54;18.40;99.90
3758;DHT22;1894;51.038;13.692;2022-08-25T05:09:21;18.40;99.90
3758;DHT22;1894;51.038;13.692;2022-08-25T05:11:51;18.50;99.90
3758;DHT22;1894;51.038;13.692;2022-08-25T05:14:19;18.40;99.90
3758;DHT22;1894;51.038;13.692;2022-08-25T05:16:53;18.50;99.90
3758;DHT22;1894;51.038;13.692;2022-08-25T05:19:21;18.60;99.90
3758;DHT22;1894;51.038;13.692;2022-08-25T05:21:50;18.70;99.90
3758;DHT22;1894;51.038;13.692;2022-08-25T05:24:18;18.90;99.90
3758;DHT22;1894;51.038;13.692;2022-08-25T05:26:46;19.10;99.90
3758;DHT22;1894;51.038;13.692;2022-08-25T05:29:13;19.20;99.90
3758;DHT22;1894;51.038;13.692;2022-08-25T05:31:41;19.20;99.90
3758;DHT22;1894;51.038;13.692;2022-08-25T05:34:16;19.30;99.90
3758;DHT22;1894;51.038;13.692;2022-08-25T05:36:45;19.50;99.90
3758;DHT22;1894;51.038;13.692;2022-08-25T05:39:12;19.70;99.90
3758;DHT22;1894;51.038;13.692;2022-08-25T05:41:39;19.90;99.90
3758;DHT22;1894;51.038;13.692;2022-08-25T05:44:06;20.10;99.90
3758;DHT22;1894;51.038;13.692;2022-08-25T05:46:34;20.40;99.90
3758;DHT22;1894;51.038;13.692;2022-08-25T05:49:01;20.60;99.90
3758;DHT22;1894;51.038;13.692;2022-08-25T05:51:28;20.70;99.90
3758;DHT22;1894;51.038;13.692;2022-08-25T05:53:55;20.80;99.90
3758;DHT22;1894;51.038;13.692;2022-08-25T05:56:22;20.80;99.90
3758;DHT22;1894;51.038;13.692;2022-08-25T05:58:49;20.80;99.90
3758;DHT22;1894;51.038;13.692;2022-08-25T06:01:22;20.80;99.90
3758;DHT22;1894;51.038;13.692;2022-08-25T06:04:10;20.80;99.90
3758;DHT22;1894;51.038;13.692;2022-08-25T06:06:37;20.80;99.90
3758;DHT22;1894;51.038;13.692;2022-08-25T06:09:04;20.80;99.90
3758;DHT22;1894;51.038;13.692;2022-08-25T06:11:35;20.70;99.90
3758;DHT22;1894;51.038;13.692;2022-08-25T06:14:03;20.80;99.90
3758;DHT22;1894;51.038;13.692;2022-08-25T06:16:30;21.00;99.90
3758;DHT22;1894;51.038;13.692;2022-08-25T06:18:57;21.10;99.90
3758;DHT22;1894;51.038;13.692;2022-08-25T06:21:24;21.00;99.90
3758;DHT22;1894;51.038;13.692;2022-08-25T06:23:51;21.20;99.90
3758;DHT22;1894;51.038;13.692;2022-08-25T06:26:19;21.30;99.90
3758;DHT22;1894;51.038;13.692;2022-08-25T06:28:48;21.30;99.90
3758;DHT22;1894;51.038;13.692;2022-08-25T06:31:16;21.60;99.90
3758;DHT22;1894;51.038;13.692;2022-08-25T06:33:43;21.80;99.90
3758;DHT22;1894;51.038;13.692;2022-08-25T06:36:11;21.80;99.90
3758;DHT22;1894;51.038;13.692;2022-08-25T06:38:38;21.90;99.90
3758;DHT22;1894;51.038;13.692;2022-08-25T06:41:06;21.90;99.90
3758;DHT22;1894;51.038;13.692;2022-08-25T06:43:34;21.90;99.90
3758;DHT22;1894;51.038;13.692;2022-08-25T06:46:13;21.80;99.90
3758;DHT22;1894;51.038;13.692;2022-08-25T06:48:40;22.00;99.90
3758;DHT22;1894;51.038;13.692;2022-08-25T06:51:09;22.20;99.90
3758;DHT22;1894;51.038;13.692;2022-08-25T06:53:41;22.20;99.90
3758;DHT22;1894;51.038;13.692;2022-08-25T06:56:09;22.30;99.90
3758;DHT22;1894;51.038;13.692;2022-08-25T06:58:37;22.40;99.90
3758;DHT22;1894;51.038;13.692;2022-08-25T07:01:21;22.50;99.90
3758;DHT22;1894;51.038;13.692;2022-08-25T07:03:54;22.50;99.90
3758;DHT22;1894;51.038;13.692;2022-08-25T07:06:24;22.80;99.90
3758;DHT22;1894;51.038;13.692;2022-08-25T07:08:53;22.80;99.90
3758;DHT22;1894;51.038;13.692;2022-08-25T07:11:20;23.00;99.90
3758;DHT22;1894;51.038;13.692;2022-08-25T07:13:47;23.00;99.90
3758;DHT22;1894;51.038;13.692;2022-08-25T07:16:15;23.10;99.90
3758;DHT22;1894;51.038;13.692;2022-08-25T07:18:43;23.10;99.90
3758;DHT22;1894;51.038;13.692;2022-08-25T07:21:12;23.30;99.90
3758;DHT22;1894;51.038;13.692;2022-08-25T07:23:40;23.40;99.90
3758;DHT22;1894;51.038;13.692;2022-08-25T07:26:14;23.50;99.90
3758;DHT22;1894;51.038;13.692;2022-08-25T07:29:23;23.30;99.90
3758;DHT22;1894;51.038;13.692;2022-08-25T07:31:58;23.50;99.90
3758;DHT22;1894;51.038;13.692;2022-08-25T07:34:25;23.50;99.90
3758;DHT22;1894;51.038;13.692;2022-08-25T07:37:19;23.50;99.90
3758;DHT22;1894;51.038;13.692;2022-08-25T07:40:07;23.60;99.90
3758;DHT22;1894;51.038;13.692;2022-08-25T07:42:36;23.70;99.90
3758;DHT22;1894;51.038;13.692;2022-08-25T07:45:05;24.00;99.90
3758;DHT22;1894;51.038;13.692;2022-08-25T07:47:33;23.90;99.90
3758;DHT22;1894;51.038;13.692;2022-08-25T07:50:00;23.60;99.90
3758;DHT22;1894;51.038;13.692;2022-08-25T07:52:31;23.60;99.90
3758;DHT22;1894;51.038;13.692;2022-08-25T07:54:59;23.60;99.90
3758;DHT22;1894;51.038;13.692;2022-08-25T07:57:26;23.80;99.90
3758;DHT22;1894;51.038;13.692;2022-08-25T07:59:55;24.10;99.90
3758;DHT22;1894;51.038;13.692;2022-08-25T08:02:24;24.30;99.90
3758;DHT22;1894;51.038;13.692;2022-08-25T08:04:52;24.00;99.90
3758;DHT22;1894;51.038;13.692;2022-08-25T08:07:23;24.40;99.90
3758;DHT22;1894;51.038;13.692;2022-08-25T08:10:12;24.70;99.90
3758;DHT22;1894;51.038;13.692;2022-08-25T08:12:59;25.10;99.90
3758;DHT22;1894;51.038;13.692;2022-08-25T08:15:26;25.40;99.90
3758;DHT22;1894;51.038;13.692;2022-08-25T08:17:56;24.90;99.90
3758;DHT22;1894;51.038;13.692;2022-08-25T08:20:25;24.70;99.90
3758;DHT22;1894;51.038;13.692;2022-08-25T08:22:52;24.40;99.90
3758;DHT22;1894;51.038;13.692;2022-08-25T08:25:19;24.90;99.90
3758;DHT22;1894;51.038;13.692;2022-08-25T08:27:55;25.60;99.90
3758;DHT22;1894;51.038;13.692;2022-08-25T08:30:23;25.90;99.90
3758;DHT22;1894;51.038;13.692;2022-08-25T08:32:53;25.80;99.90
3758;DHT22;1894;51.038;13.692;2022-08-25T08:35:39;25.70;99.90
3758;DHT22;1894;51.038;13.692;2022-08-25T08:38:07;25.50;99.90
3758;DHT22;1894;51.038;13.692;2022-08-25T08:40:57;25.60;99.90
3758;DHT22;1894;51.038;13.692;2022-08-25T08:43:59;26.00;99.90
3758;DHT22;1894;51.038;13.692;2022-08-25T08:52:45;27.00;99.90
3758;DHT22;1894;51.038;13.692;2022-08-25T08:55:25;27.40;99.90
3758;DHT22;1894;51.038;13.692;2022-08-25T08:57:57;27.10;99.90
3758;DHT22;1894;51.038;13.692;2022-08-25T09:00:26;27.60;99.90
3758;DHT22;1894;51.038;13.692;2022-08-25T09:03:10;27.90;99.90
3758;DHT22;1894;51.038;13.692;2022-08-25T09:05:47;28.00;99.90
3758;DHT22;1894;51.038;13.692;2022-08-25T09:08:16;28.10;99.90
3758;DHT22;1894;51.038;13.692;2022-08-25T09:16:46;28.30;99.90
3758;DHT22;1894;51.038;13.692;2022-08-25T09:25:30;28.90;99.90
3758;DHT22;1894;51.038;13.692;2022-08-25T09:28:37;28.70;99.90
3758;DHT22;1894;51.038;13.692;2022-08-25T09:33:45;28.90;99.90
3758;DHT22;1894;51.038;13.692;2022-08-25T09:36:13;29.00;99.90
3758;DHT22;1894;51.038;13.692;2022-08-25T09:38:40;28.50;99.90
3758;DHT22;1894;51.038;13.692;2022-08-25T09:41:07;28.20;99.90
3758;DHT22;1894;51.038;13.692;2022-08-25T09:43:41;28.20;99.90
3758;DHT22;1894;51.038;13.692;2022-08-25T09:46:14;27.50;99.90
3758;DHT22;1894;51.038;13.692;2022-08-25T09:48:49;27.80;99.90
3758;DHT22;1894;51.038;13.692;2022-08-25T09:56:55;29.00;99.90
3758;DHT22;1894;51.038;13.692;2022-08-25T09:59:30;29.00;99.90
3758;DHT22;1894;51.038;13.692;2022-08-25T10:02:27;28.70;99.90
3758;DHT22;1894;51.038;13.692;2022-08-25T10:04:55;29.10;99.90
3758;DHT22;1894;51.038;13.692;2022-08-25T10:07:35;29.20;99.90
3758;DHT22;1894;51.038;13.692;2022-08-25T10:10:16;29.20;99.90
3758;DHT22;1894;51.038;13.692;2022-08-25T10:12:45;28.80;99.90
3758;DHT22;1894;51.038;13.692;2022-08-25T10:15:32;28.70;99.90
3758;DHT22;1894;51.038;13.692;2022-08-25T10:18:25;29.00;99.90
3758;DHT22;1894;51.038;13.692;2022-08-25T10:21:00;28.20;99.90
3758;DHT22;1894;51.038;13.692;2022-08-25T10:23:29;28.70;99.90
3758;DHT22;1894;51.038;13.692;2022-08-25T10:26:00;28.80;99.90
3758;DHT22;1894;51.038;13.692;2022-08-25T10:28:43;29.10;99.90
3758;DHT22;1894;51.038;13.692;2022-08-25T10:31:23;29.40;99.90
3758;DHT22;1894;51.038;13.692;2022-08-25T10:33:56;29.20;99.90
3758;DHT22;1894;51.038;13.692;2022-08-25T10:36:42;29.20;99.90
3758;DHT22;1894;51.038;13.692;2022-08-25T10:39:29;29.00;99.90
3758;DHT22;1894;51.038;13.692;2022-08-25T10:45:25;29.50;99.90
3758;DHT22;1894;51.038;13.692;2022-08-25T10:54:26;30.00;99.90
3758;DHT22;1894;51.038;13.692;2022-08-25T11:05:39;29.70;99.90
3758;DHT22;1894;51.038;13.692;2022-08-25T11:08:16;29.60;99.90
3758;DHT22;1894;51.038;13.692;2022-08-25T11:11:06;29.70;99.90
3758;DHT22;1894;51.038;13.692;2022-08-25T11:13:54;30.00;99.90
3758;DHT22;1894;51.038;13.692;2022-08-25T11:17:12;29.80;99.90
3758;DHT22;1894;51.038;13.692;2022-08-25T11:19:22;30.20;99.90
3758;DHT22;1894;51.038;13.692;2022-08-25T11:22:09;30.20;99.90
3758;DHT22;1894;51.038;13.692;2022-08-25T11:30:26;30.60;99.90
3758;DHT22;1894;51.038;13.692;2022-08-25T11:32:55;30.80;99.90
3758;DHT22;1894;51.038;13.692;2022-08-25T11:38:31;31.30;99.90
3758;DHT22;1894;51.038;13.692;2022-08-25T11:44:23;31.80;99.90
3758;DHT22;1894;51.038;13.692;2022-08-25T11:55:21;33.50;99.90
3758;DHT22;1894;51.038;13.692;2022-08-25T11:57:51;32.90;99.90
3758;DHT22;1894;51.038;13.692;2022-08-25T12:00:37;33.50;99.90
3758;DHT22;1894;51.038;13.692;2022-08-25T12:07:15;33.20;99.90
3758;DHT22;1894;51.038;13.692;2022-08-25T12:11:52;37.70;99.90
3758;DHT22;1894;51.038;13.692;2022-08-25T12:35:30;40.00;86.60
3758;DHT22;1894;51.038;13.692;2022-08-25T12:40:59;41.00;85.40
3758;DHT22;1894;51.038;13.692;2022-08-25T12:43:31;40.60;83.40
3758;DHT22;1894;51.038;13.692;2022-08-25T12:48:56;43.00;77.30
3758;DHT22;1894;51.038;13.692;2022-08-25T12:51:27;42.60;75.80
3758;DHT22;1894;51.038;13.692;2022-08-25T12:56:59;40.20;82.40
3758;DHT22;1894;51.038;13.692;2022-08-25T13:13:48;37.80;86.30
3758;DHT22;1894;51.038;13.692;2022-08-25T13:16:20;38.70;86.70
3758;DHT22;1894;51.038;13.692;2022-08-25T13:18:55;40.20;82.30
3758;DHT22;1894;51.038;13.692;2022-08-25T13:21:41;41.80;77.20
3758;DHT22;1894;51.038;13.692;2022-08-25T13:24:20;41.80;75.00
3758;DHT22;1894;51.038;13.692;2022-08-25T13:26:53;42.40;70.40
3758;DHT22;1894;51.038;13.692;2022-08-25T13:29:26;42.40;71.40
3758;DHT22;1894;51.038;13.692;2022-08-25T13:31:59;39.10;77.50
3758;DHT22;1894;51.038;13.692;2022-08-25T13:34:32;37.90;83.10
3758;DHT22;1894;51.038;13.692;2022-08-25T13:37:16;36.60;88.70
3758;DHT22;1894;51.038;13.692;2022-08-25T13:42:39;40.00;78.80
3758;DHT22;1894;51.038;13.692;2022-08-25T13:45:17;41.90;72.60
3758;DHT22;1894;51.038;13.692;2022-08-25T13:47:46;43.30;66.70
3758;DHT22;1894;51.038;13.692;2022-08-25T13:53:12;42.10;65.90
3758;DHT22;1894;51.038;13.692;2022-08-25T13:58:33;39.40;72.00
3758;DHT22;1894;51.038;13.692;2022-08-25T14:01:16;39.50;71.10
3758;DHT22;1894;51.038;13.692;2022-08-25T14:06:47;42.30;68.40
3758;DHT22;1894;51.038;13.692;2022-08-25T14:09:17;44.30;63.90
3758;DHT22;1894;51.038;13.692;2022-08-25T14:11:57;43.50;65.60
3758;DHT22;1894;51.038;13.692;2022-08-25T14:17:08;45.00;61.40
3758;DHT22;1894;51.038;13.692;2022-08-25T14:19:56;45.70;59.70
3758;DHT22;1894;51.038;13.692;2022-08-25T14:22:23;45.70;57.00
3758;DHT22;1894;51.038;13.692;2022-08-25T14:24:51;43.40;60.00
3758;DHT22;1894;51.038;13.692;2022-08-25T14:27:19;39.30;69.80
3758;DHT22;1894;51.038;13.692;2022-08-25T14:29:46;38.20;74.70
3758;DHT22;1894;51.038;13.692;2022-08-25T14:32:18;37.80;76.80
3758;DHT22;1894;51.038;13.692;2022-08-25T14:34:46;37.40;80.20
3758;DHT22;1894;51.038;13.692;2022-08-25T14:37:16;38.70;78.80
3758;DHT22;1894;51.038;13.692;2022-08-25T14:39:44;39.70;76.00
3758;DHT22;1894;51.038;13.692;2022-08-25T14:42:12;38.60;77.00
3758;DHT22;1894;51.038;13.692;2022-08-25T14:44:39;39.60;77.30
3758;DHT22;1894;51.038;13.692;2022-08-25T14:47:06;40.30;75.30
3758;DHT22;1894;51.038;13.692;2022-08-25T14:49:38;41.80;71.10
3758;DHT22;1894;51.038;13.692;2022-08-25T14:52:10;40.60;71.00
3758;DHT22;1894;51.038;13.692;2022-08-25T14:54:39;39.10;74.40
3758;DHT22;1894;51.038;13.692;2022-08-25T14:57:07;37.80;79.10
3758;DHT22;1894;51.038;13.692;2022-08-25T14:59:34;36.50;83.90
3758;DHT22;1894;51.038;13.692;2022-08-25T15:02:11;36.10;86.90
3758;DHT22;1894;51.038;13.692;2022-08-25T15:04:40;36.80;88.40
3758;DHT22;1894;51.038;13.692;2022-08-25T15:07:15;37.50;86.00
3758;DHT22;1894;51.038;13.692;2022-08-25T15:10:09;38.80;83.10
3758;DHT22;1894;51.038;13.692;2022-08-25T15:12:39;38.70;80.30
3758;DHT22;1894;51.038;13.692;2022-08-25T15:15:13;38.00;82.10
3758;DHT22;1894;51.038;13.692;2022-08-25T15:17:41;36.40;87.30
3758;DHT22;1894;51.038;13.692;2022-08-25T15:20:10;36.20;90.00
3758;DHT22;1894;51.038;13.692;2022-08-25T15:22:38;35.70;90.10
3758;DHT22;1894;51.038;13.692;2022-08-25T15:25:07;35.00;91.90
3758;DHT22;1894;51.038;13.692;2022-08-25T15:27:35;34.20;94.80
3758;DHT22;1894;51.038;13.692;2022-08-25T15:30:03;33.30;96.70
3758;DHT22;1894;51.038;13.692;2022-08-25T15:32:30;32.70;99.90
3758;DHT22;1894;51.038;13.692;2022-08-25T15:34:57;32.00;99.90
3758;DHT22;1894;51.038;13.692;2022-08-25T15:37:25;31.40;99.90
3758;DHT22;1894;51.038;13.692;2022-08-25T15:39:53;31.50;99.90
3758;DHT22;1894;51.038;13.692;2022-08-25T15:42:20;31.30;99.90
3758;DHT22;1894;51.038;13.692;2022-08-25T15:44:47;30.90;99.90
3758;DHT22;1894;51.038;13.692;2022-08-25T15:47:21;31.00;99.90
3758;DHT22;1894;51.038;13.692;2022-08-25T15:49:48;30.60;99.90
3758;DHT22;1894;51.038;13.692;2022-08-25T15:52:15;30.80;99.90
3758;DHT22;1894;51.038;13.692;2022-08-25T15:54:42;30.80;99.90
3758;DHT22;1894;51.038;13.692;2022-08-25T15:57:10;30.80;99.90
3758;DHT22;1894;51.038;13.692;2022-08-25T15:59:50;31.30;99.90
3758;DHT22;1894;51.038;13.692;2022-08-25T16:02:19;33.00;99.90
3758;DHT22;1894;51.038;13.692;2022-08-25T16:04:47;34.50;99.90
3758;DHT22;1894;51.038;13.692;2022-08-25T16:07:14;35.00;99.10
3758;DHT22;1894;51.038;13.692;2022-08-25T16:09:41;35.90;97.60
3758;DHT22;1894;51.038;13.692;2022-08-25T16:12:10;36.40;96.40
3758;DHT22;1894;51.038;13.692;2022-08-25T16:14:39;37.00;94.70
3758;DHT22;1894;51.038;13.692;2022-08-25T16:17:06;37.20;93.80
3758;DHT22;1894;51.038;13.692;2022-08-25T16:19:33;37.40;93.70
3758;DHT22;1894;51.038;13.692;2022-08-25T16:22:04;37.60;93.40
3758;DHT22;1894;51.038;13.692;2022-08-25T16:24:36;36.50;94.80
3758;DHT22;1894;51.038;13.692;2022-08-25T16:27:05;36.50;95.70
3758;DHT22;1894;51.038;13.692;2022-08-25T16:29:39;36.50;95.60
3758;DHT22;1894;51.038;13.692;2022-08-25T16:32:07;35.80;96.30
3758;DHT22;1894;51.038;13.692;2022-08-25T16:34:35;35.50;96.20
3758;DHT22;1894;51.038;13.692;2022-08-25T16:37:02;35.50;96.10
3758;DHT22;1894;51.038;13.692;2022-08-25T16:39:30;34.80;97.60
3758;DHT22;1894;51.038;13.692;2022-08-25T16:41:57;34.80;98.10
3758;DHT22;1894;51.038;13.692;2022-08-25T16:44:25;34.40;99.10
3758;DHT22;1894;51.038;13.692;2022-08-25T16:46:53;34.70;99.20
3758;DHT22;1894;51.038;13.692;2022-08-25T16:49:22;34.80;99.20
3758;DHT22;1894;51.038;13.692;2022-08-25T16:51:53;34.10;99.90
3758;DHT22;1894;51.038;13.692;2022-08-25T16:54:25;33.60;99.90
3758;DHT22;1894;51.038;13.692;2022-08-25T16:57:11;33.60;99.90
3758;DHT22;1894;51.038;13.692;2022-08-25T16:59:38;33.30;99.90
3758;DHT22;1894;51.038;13.692;2022-08-25T17:02:07;33.30;99.90
3758;DHT22;1894;51.038;13.692;2022-08-25T17:04:34;32.90;99.90
3758;DHT22;1894;51.038;13.692;2022-08-25T17:07:03;32.20;99.90
3758;DHT22;1894;51.038;13.692;2022-08-25T17:09:30;31.90;99.90
3758;DHT22;1894;51.038;13.692;2022-08-25T17:11:57;31.80;99.90
3758;DHT22;1894;51.038;13.692;2022-08-25T17:14:24;32.00;99.90
3758;DHT22;1894;51.038;13.692;2022-08-25T17:16:52;31.90;99.90
3758;DHT22;1894;51.038;13.692;2022-08-25T17:19:22;31.30;99.90
3758;DHT22;1894;51.038;13.692;2022-08-25T17:21:52;30.60;99.90
3758;DHT22;1894;51.038;13.692;2022-08-25T17:24:20;30.10;99.90
3758;DHT22;1894;51.038;13.692;2022-08-25T17:26:55;29.70;99.90
3758;DHT22;1894;51.038;13.692;2022-08-25T17:29:22;28.90;99.90
3758;DHT22;1894;51.038;13.692;2022-08-25T17:31:50;28.50;99.90
3758;DHT22;1894;51.038;13.692;2022-08-25T17:34:17;28.20;99.90
3758;DHT22;1894;51.038;13.692;2022-08-25T17:36:49;28.10;99.90
3758;DHT22;1894;51.038;13.692;2022-08-25T17:39:16;27.70;99.90
3758;DHT22;1894;51.038;13.692;2022-08-25T17:41:48;27.70;99.90
3758;DHT22;1894;51.038;13.692;2022-08-25T17:44:17;27.60;99.90
3758;DHT22;1894;51.038;13.692;2022-08-25T17:46:45;27.30;99.90
3758;DHT22;1894;51.038;13.692;2022-08-25T17:49:15;27.10;99.90
3758;DHT22;1894;51.038;13.692;2022-08-25T17:51:42;27.00;99.90
3758;DHT22;1894;51.038;13.692;2022-08-25T17:54:10;26.80;99.90
3758;DHT22;1894;51.038;13.692;2022-08-25T17:56:38;26.70;99.90
3758;DHT22;1894;51.038;13.692;2022-08-25T17:59:05;26.50;99.90
3758;DHT22;1894;51.038;13.692;2022-08-25T18:01:34;26.40;99.90
3758;DHT22;1894;51.038;13.692;2022-08-25T18:04:09;26.20;99.90
3758;DHT22;1894;51.038;13.692;2022-08-25T18:06:44;26.10;99.90
3758;DHT22;1894;51.038;13.692;2022-08-25T18:09:13;26.00;99.90
3758;DHT22;1894;51.038;13.692;2022-08-25T18:11:40;25.90;99.90
3758;DHT22;1894;51.038;13.692;2022-08-25T18:14:09;25.80;99.90
3758;DHT22;1894;51.038;13.692;2022-08-25T18:16:37;25.60;99.90
3758;DHT22;1894;51.038;13.692;2022-08-25T18:19:04;25.60;99.90
3758;DHT22;1894;51.038;13.692;2022-08-25T18:21:35;25.40;99.90